Time;durP1;ratioP1;P1;durP2;ratioP2;P2;SDS_P1;SDS_P2;PMS_P1;PMS_P2;Temp;Humidity;BMP_temperature;BMP_pressure;BME280_temperature;BME280_humidity;BME280_pressure;Samples;Min_cycle;Max_cycle;Signal;HPM_P1;HPM_P2
2022/08/15 00:00:14;;;;;;;4.57;2.70;;;;;;;25.68;42.39;98078.88;5181935;28;20577;-71
2022/08/15 00:03:52;;;;;;;4.20;3.08;;;;;;;25.66;42.77;98070.19;5177499;28;20062;-71
2022/08/15 00:06:54;;;;;;;8.07;2.65;;;;;;;25.57;43.16;98079.91;5178448;28;20526;-71
2022/08/15 00:09:46;;;;;;;5.93;3.00;;;;;;;25.56;42.95;98078.25;5185521;28;20462;-71
2022/08/15 00:12:44;;;;;;;4.30;2.80;;;;;;;25.43;42.66;98071.41;5180415;28;20187;-71
2022/08/15 00:15:33;;;;;;;4.60;2.70;;;;;;;25.40;42.46;98077.38;5182654;28;20049;-70
2022/08/15 00:18:27;;;;;;;4.10;2.75;;;;;;;25.43;43.35;98087.72;5180422;28;20046;-70
2022/08/15 00:21:20;;;;;;;6.80;2.90;;;;;;;25.52;42.90;98079.88;5178981;28;20124;-71
2022/08/15 00:24:15;;;;;;;5.80;2.80;;;;;;;25.45;43.01;98084.72;5165674;28;20061;-72
2022/08/15 00:27:10;;;;;;;4.80;3.00;;;;;;;25.33;42.86;98084.94;5164998;28;20536;-70
2022/08/15 00:30:03;;;;;;;4.90;2.67;;;;;;;25.15;43.36;98069.06;5181796;28;20485;-70
2022/08/15 00:32:56;;;;;;;9.60;3.42;;;;;;;25.18;45.46;98077.50;5163434;28;20092;-70
2022/08/15 00:36:08;;;;;;;5.97;2.90;;;;;;;25.05;45.73;98067.06;5179436;28;20052;-71
2022/08/15 00:39:21;;;;;;;3.08;2.75;;;;;;;25.00;45.24;98076.00;5168798;28;20121;-71
2022/08/15 00:42:12;;;;;;;4.15;2.90;;;;;;;24.90;45.99;98077.78;5165191;28;20052;-72
2022/08/15 00:45:08;;;;;;;3.38;2.97;;;;;;;24.88;46.33;98071.81;5167894;28;20045;-72
2022/08/15 00:51:46;;;;;;;6.07;2.90;;;;;;;24.87;46.73;98072.88;5169497;28;20057;-71
2022/08/15 00:54:50;;;;;;;7.20;2.58;;;;;;;24.82;45.15;98069.03;5171052;28;20065;-70
2022/08/15 00:57:47;;;;;;;8.13;3.28;;;;;;;24.79;45.14;98077.69;5184817;28;20060;-70
2022/08/15 01:00:51;;;;;;;7.03;3.15;;;;;;;24.87;45.94;98078.28;5183899;28;20061;-72
2022/08/15 01:03:47;;;;;;;5.95;3.50;;;;;;;24.74;46.07;98077.66;5165586;28;20053;-71
2022/08/15 01:06:46;;;;;;;10.07;3.00;;;;;;;24.78;46.51;98081.50;5169545;28;20054;-71
2022/08/15 01:09:46;;;;;;;5.68;3.03;;;;;;;24.71;47.79;98082.78;5185483;28;20523;-71
2022/08/15 01:12:37;;;;;;;7.10;3.30;;;;;;;24.77;47.50;98082.56;5183777;28;20053;-70
2022/08/15 01:15:31;;;;;;;4.83;3.60;;;;;;;24.57;48.28;98085.09;5188564;28;20622;-70
2022/08/15 01:18:32;;;;;;;6.07;3.28;;;;;;;24.58;49.83;98089.44;5184322;28;20284;-71
2022/08/15 01:21:45;;;;;;;4.32;3.55;;;;;;;24.49;49.43;98074.72;5167925;28;20048;-71
2022/08/15 01:24:58;;;;;;;6.30;3.35;;;;;;;24.48;47.06;98081.22;5180600;28;20061;-71
2022/08/15 01:28:33;;;;;;;5.47;3.20;;;;;;;24.48;47.39;98083.94;5168548;28;20072;-71
2022/08/15 01:31:25;;;;;;;5.72;3.30;;;;;;;24.17;47.77;98071.91;5159889;28;20452;-70
2022/08/15 01:34:16;;;;;;;3.28;2.90;;;;;;;24.40;48.48;98071.59;5166519;28;20427;-71
2022/08/15 01:37:09;;;;;;;6.38;3.10;;;;;;;24.26;47.87;98054.94;5167889;28;20060;-71
2022/08/15 01:40:19;;;;;;;4.78;3.00;;;;;;;24.36;47.90;98068.59;5164058;28;20081;-71
2022/08/15 01:43:36;;;;;;;7.93;3.33;;;;;;;24.37;48.24;98072.13;5171484;28;20042;-72
2022/08/15 01:46:32;;;;;;;7.85;3.03;;;;;;;24.42;48.27;98084.94;5164777;28;20054;-71
2022/08/15 01:49:36;;;;;;;4.50;3.58;;;;;;;24.49;46.03;98078.22;5169038;28;20548;-70
2022/08/15 01:52:43;;;;;;;6.47;3.80;;;;;;;24.41;46.83;98086.84;5169725;28;20412;-70
2022/08/15 01:56:08;;;;;;;3.53;3.03;;;;;;;24.31;46.82;98082.09;5176402;28;20061;-70
2022/08/15 01:59:22;;;;;;;4.32;3.40;;;;;;;24.43;46.52;98092.81;5168538;28;20516;-70
2022/08/15 02:02:12;;;;;;;5.95;2.78;;;;;;;24.48;46.52;98094.75;5163455;28;20128;-70
2022/08/15 02:05:23;;;;;;;5.85;3.55;;;;;;;24.56;45.58;98083.44;5183849;28;20456;-71
2022/08/15 02:08:13;;;;;;;9.02;3.58;;;;;;;24.47;45.94;98088.53;5182778;28;20508;-71
2022/08/15 02:11:28;;;;;;;5.38;3.05;;;;;;;24.37;46.25;98089.22;5168799;28;20053;-71
2022/08/15 02:14:41;;;;;;;6.30;3.45;;;;;;;24.49;45.84;98096.38;5167192;28;20061;-71
2022/08/15 02:17:34;;;;;;;4.70;3.50;;;;;;;24.44;46.17;98093.66;5167079;28;20042;-72
2022/08/15 02:20:26;;;;;;;4.45;3.20;;;;;;;24.37;46.48;98096.50;5166905;28;20552;-70
2022/08/15 02:23:17;;;;;;;6.55;3.17;;;;;;;24.37;46.23;98094.63;5181525;28;20055;-71
2022/08/15 02:26:09;;;;;;;6.82;3.53;;;;;;;24.19;47.09;98099.56;5169602;28;20125;-71
2022/08/15 02:29:03;;;;;;;6.10;3.10;;;;;;;24.18;47.60;98097.94;5171226;28;20050;-70
2022/08/15 02:32:04;;;;;;;7.68;3.30;;;;;;;24.25;47.12;98093.13;5165330;28;20050;-70
2022/08/15 02:34:54;;;;;;;5.07;3.13;;;;;;;24.20;46.98;98099.28;5166934;28;20054;-72
2022/08/15 02:37:46;;;;;;;6.85;2.90;;;;;;;23.89;48.08;98090.81;5167041;28;20133;-71
2022/08/15 02:40:50;;;;;;;6.40;3.65;;;;;;;24.02;48.06;98096.94;5162883;28;20169;-72
2022/08/15 02:43:45;;;;;;;5.88;3.33;;;;;;;24.05;46.51;98107.25;5169089;28;20050;-70
2022/08/15 02:46:39;;;;;;;5.75;3.05;;;;;;;24.08;47.03;98112.19;5166574;28;20412;-72
2022/08/15 02:49:49;;;;;;;3.95;3.03;;;;;;;24.03;47.34;98109.41;5164908;28;20056;-71
2022/08/15 02:52:47;;;;;;;6.15;3.53;;;;;;;24.12;46.91;98107.88;5168910;28;20081;-70
2022/08/15 02:55:43;;;;;;;6.47;3.53;;;;;;;24.22;46.51;98105.28;5167301;28;20081;-72
2022/08/15 02:58:33;;;;;;;3.92;3.40;;;;;;;24.24;45.87;98089.63;5184459;28;20050;-71
2022/08/15 03:01:33;;;;;;;4.97;3.20;;;;;;;24.10;47.10;98101.88;5152595;28;20064;-71
2022/08/15 03:04:35;;;;;;;;;;;;;;;24.17;46.82;98105.22;5166629;28;20053;-70
2022/08/15 03:07:27;;;;;;;;;;;;;;;24.10;47.12;98110.00;5168100;28;19936;-70
2022/08/15 03:10:17;;;;;;;;;;;;;;;23.90;47.41;98103.28;5172936;28;20384;-71
2022/08/15 03:13:19;;;;;;;;;;;;;;;23.99;47.24;98113.69;5166934;28;19933;-71
2022/08/15 03:16:11;;;;;;;;;;;;;;;24.01;47.05;98112.38;5169002;28;20000;-71
2022/08/15 03:19:04;;;;;;;;;;;;;;;23.97;47.37;98115.81;5164394;28;19929;-72
2022/08/15 03:21:55;;;;;;;;;;;;;;;23.55;47.74;98054.09;5174869;28;19936;-72
2022/08/15 03:24:46;;;;;;;;;;;;;;;23.71;48.59;98112.81;5168142;28;19922;-71
2022/08/15 03:27:36;;;;;;;;;;;;;;;23.73;48.61;98116.06;5166858;28;19926;-72
2022/08/15 03:30:26;;;;;;;;;;;;;;;23.70;48.42;98115.75;5184051;28;19932;-71
2022/08/15 03:33:17;;;;;;;;;;;;;;;23.70;48.25;98116.56;5160893;28;19935;-72
2022/08/15 03:36:11;;;;;;;;;;;;;;;23.54;47.85;98122.78;5162952;28;19955;-71
2022/08/15 03:39:03;;;;;;;;;;;;;;;23.40;49.56;98120.44;5152912;28;19929;-70
2022/08/15 03:41:53;;;;;;;;;;;;;;;23.30;49.03;98122.97;5169026;28;19968;-71
2022/08/15 03:44:45;;;;;;;;;;;;;;;23.37;49.63;98120.09;5165007;28;19936;-70
2022/08/15 03:47:36;;;;;;;;;;;;;;;23.29;49.59;98120.53;5180513;28;20398;-70
2022/08/15 03:50:27;;;;;;;;;;;;;;;23.29;49.41;98126.75;5164797;28;20087;-71
2022/08/15 03:53:28;;;;;;;;;;;;;;;23.28;49.74;98125.13;5163380;28;19930;-70
2022/08/15 03:56:20;;;;;;;;;;;;;;;23.29;49.63;98120.53;5168098;28;20012;-70
2022/08/15 03:59:10;;;;;;;;;;;;;;;23.39;49.57;98126.91;5166675;28;19932;-72
2022/08/15 04:02:02;;;;;;;;;;;;;;;23.34;50.31;98120.59;5166128;28;19976;-73
2022/08/15 04:04:53;;;;;;;;;;;;;;;23.48;49.97;98119.22;5164669;28;19996;-72
2022/08/15 04:07:43;;;;;;;;;;;;;;;23.43;49.99;98121.81;5162182;28;19921;-72
2022/08/15 04:10:36;;;;;;;;;;;;;;;23.37;50.47;98112.81;5172189;28;19964;-72
2022/08/15 04:13:32;;;;;;;;;;;;;;;23.36;50.45;98130.13;5165092;28;19944;-71
2022/08/15 04:16:23;;;;;;;;;;;;;;;23.34;51.37;98126.81;5164636;28;19921;-73
2022/08/15 04:19:34;;;;;;;;;;;;;;;23.27;51.15;98128.88;5168156;28;19928;-72
2022/08/15 04:22:36;;;;;;;;;;;;;;;23.33;50.97;98129.78;5169731;28;19928;-72
2022/08/15 04:25:42;;;;;;;;;;;;;;;23.33;51.24;98127.91;5179258;28;20091;-72
2022/08/15 04:28:43;;;;;;;;;;;;;;;23.50;50.94;98137.88;5169427;28;19937;-72
2022/08/15 04:31:45;;;;;;;;;;;;;;;23.57;51.63;98131.22;5164815;28;19976;-73
2022/08/15 04:34:38;;;;;;;;;;;;;;;23.54;51.78;98123.63;5170778;28;20026;-72
2022/08/15 04:37:39;;;;;;;;;;;;;;;23.66;51.50;98123.50;5184759;28;19984;-71
2022/08/15 04:40:30;;;;;;;;;;;;;;;23.73;51.34;98128.78;5171042;28;19921;-72
2022/08/15 04:43:42;;;;;;;;;;;;;;;23.66;52.06;98137.03;5168903;28;19922;-72
2022/08/15 04:46:38;;;;;;;;;;;;;;;23.85;51.51;98133.00;5169604;28;19964;-72
2022/08/15 04:49:30;;;;;;;;;;;;;;;23.80;52.36;98132.94;5175079;28;20380;-72
2022/08/15 04:52:20;;;;;;;;;;;;;;;23.98;51.63;98139.13;5170579;28;20050;-71
2022/08/15 04:55:16;;;;;;;;;;;;;;;23.96;51.65;98141.25;5167817;28;19967;-73
2022/08/15 04:58:07;;;;;;;;;;;;;;;23.88;52.04;98153.34;5182970;28;19964;-72
2022/08/15 05:01:19;;;;;;;;;;;;;;;23.75;52.39;98151.00;5168429;28;19951;-74
2022/08/15 05:04:15;;;;;;;;;;;;;;;23.73;52.46;98158.53;5185585;28;19932;-71
2022/08/15 05:07:14;;;;;;;;;;;;;;;23.71;52.83;98155.25;5171311;28;19936;-73
2022/08/15 05:10:08;;;;;;;;;;;;;;;23.28;54.32;98157.59;5169736;28;20390;-72
2022/08/15 05:13:12;;;;;;;;;;;;;;;23.59;53.11;98153.44;5170481;28;19988;-71
2022/08/15 05:16:04;;;;;;;;;;;;;;;23.53;53.45;98151.75;5165346;28;19975;-71
2022/08/15 05:19:00;;;;;;;;;;;;;;;23.38;54.17;98156.94;5182307;28;20414;-71
2022/08/15 05:21:53;;;;;;;;;;;;;;;23.43;53.79;98160.50;5164427;28;19971;-73
2022/08/15 05:24:44;;;;;;;;;;;;;;;23.14;54.03;98158.97;5169687;28;19932;-70
2022/08/15 05:27:34;;;;;;;;;;;;;;;23.36;53.88;98153.66;5167227;28;20403;-73
2022/08/15 05:30:25;;;;;;;;;;;;;;;23.03;54.67;98163.38;5170434;28;20015;-73
2022/08/15 05:33:19;;;;;;;;;;;;;;;23.22;54.46;98158.56;5166968;28;20524;-71
2022/08/15 05:36:11;;;;;;;;;;;;;;;22.88;55.63;98149.56;5179071;28;20304;-71
2022/08/15 05:39:21;;;;;;;;;;;;;;;23.12;55.03;98147.59;5184553;28;20433;-71
2022/08/15 05:42:27;;;;;;;;;;;;;;;23.41;53.91;98146.44;5168447;28;20007;-73
2022/08/15 05:45:21;;;;;;;;;;;;;;;22.61;56.60;98160.97;5178756;28;19925;-73
2022/08/15 05:48:24;;;;;;;;;;;;;;;23.38;54.38;98149.63;5167573;28;19932;-73
2022/08/15 05:51:30;;;;;;;;;;;;;;;23.73;53.45;98142.31;5170436;28;19932;-72
2022/08/15 05:54:39;;;;;;;;;;;;;;;23.07;55.24;98150.19;5182628;28;20082;-71
2022/08/15 05:57:44;;;;;;;;;;;;;;;23.19;54.86;98159.06;5160921;28;19932;-70
2022/08/15 06:00:38;;;;;;;;;;;;;;;23.14;55.31;98150.84;5170089;28;19974;-71
2022/08/15 06:03:29;;;;;;;;;;;;;;;23.21;55.20;98159.63;5169067;28;20414;-71
2022/08/15 06:06:31;;;;;;;;;;;;;;;23.42;54.75;98153.47;5166221;28;20299;-72
2022/08/15 06:09:48;;;;;;;;;;;;;;;23.59;53.72;98152.63;5171563;28;19983;-70
2022/08/15 06:12:46;;;;;;;;;;;;;;;23.51;54.05;98144.94;5177638;28;20453;-70
2022/08/15 06:15:50;;;;;;;;;;;;;;;23.73;53.60;98142.31;5160100;28;19930;-71
2022/08/15 06:18:45;;;;;;;;;;;;;;;23.62;54.13;98142.13;5177095;28;19921;-71
2022/08/15 06:21:48;;;;;;;;;;;;;;;23.79;53.48;98133.19;5180809;28;19922;-73
2022/08/15 06:24:47;;;;;;;;;;;;;;;22.92;55.96;98143.44;5173619;28;19984;-73
2022/08/15 06:27:38;;;;;;;;;;;;;;;23.34;54.86;98136.84;5165020;28;20051;-71
2022/08/15 06:30:35;;;;;;;;;;;;;;;23.50;54.85;98135.19;5168759;28;20006;-71
2022/08/15 06:33:26;;;;;;;;;;;;;;;23.57;54.58;98133.13;5179550;28;19999;-71
2022/08/15 06:36:26;;;;;;;;;;;;;;;23.27;55.50;98145.13;5168158;28;19928;-70
2022/08/15 06:39:25;;;;;;;;;;;;;;;23.59;54.56;98168.88;5166067;28;19929;-70
2022/08/15 06:42:36;;;;;;;;;;;;;;;23.78;54.20;98181.09;5177209;28;20050;-72
2022/08/15 06:45:33;;;;;;;;;;;;;;;24.00;53.90;98175.69;5181312;28;19966;-73
2022/08/15 06:48:30;;;;;;;;;;;;;;;24.02;53.53;98178.16;5165540;28;19921;-72
2022/08/15 06:51:41;;;;;;;;;;;;;;;24.11;53.49;98163.94;5187678;28;19928;-73
2022/08/15 06:54:35;;;;;;;;;;;;;;;24.12;52.90;98167.47;5166991;28;20574;-70
2022/08/15 06:57:57;;;;;;;;;;;;;;;23.86;53.62;98179.84;5168768;28;19948;-74
2022/08/15 07:00:57;;;;;;;;;;;;;;;23.82;54.22;98181.41;5166901;28;19936;-74
2022/08/15 07:03:56;;;;;;;;;;;;;;;23.57;54.64;98177.22;5162667;28;19925;-73
2022/08/15 07:07:01;;;;;;;;;;;;;;;23.90;52.21;98184.50;5165771;28;19961;-74
2022/08/15 07:10:00;;;;;;;;;;;;;;;24.01;51.81;98184.66;5170325;28;19928;-70
2022/08/15 07:13:02;;;;;;;;;;;;;;;24.24;50.95;98179.00;5171667;28;19928;-70
2022/08/15 07:15:57;;;;;;;;;;;;;;;24.48;50.81;98181.47;5182901;28;19928;-72
2022/08/15 07:18:50;;;;;;;;;;;;;;;24.72;49.63;98190.13;5172149;28;20398;-70
2022/08/15 07:22:01;;;;;;;;;;;;;;;24.45;50.33;98190.94;5163511;28;19955;-70
2022/08/15 07:24:54;;;;;;;;;;;;;;;24.47;50.32;98191.50;5167977;28;19929;-74
2022/08/15 07:27:54;;;;;;;;;;;;;;;24.76;49.60;98192.06;5163017;28;19948;-70
2022/08/15 07:30:51;;;;;;;;;;;;;;;24.49;50.07;98192.03;5167080;28;20099;-69
2022/08/15 07:33:47;;;;;;;;;;;;;;;25.35;48.78;98195.91;5183736;28;19979;-70
2022/08/15 07:36:55;;;;;;;;;;;;;;;25.72;47.63;98191.28;5166705;28;19932;-70
2022/08/15 07:39:55;;;;;;;;;;;;;;;25.81;47.47;98199.00;5178408;28;20014;-70
2022/08/15 07:42:45;;;;;;;;;;;;;;;24.57;49.73;98198.94;5173914;28;20076;-70
2022/08/15 07:46:03;;;;;;;;;;;;;;;26.09;46.63;98204.03;5161471;28;19979;-68
2022/08/15 07:49:18;;;;;;;;;;;;;;;27.66;44.09;98193.00;5164332;28;19935;-71
2022/08/15 07:52:15;;;;;;;;;;;;;;;27.49;44.27;98201.44;5166751;28;20328;-71
2022/08/15 07:55:26;;;;;;;;;;;;;;;27.82;43.38;98200.88;5169205;28;19944;-73
2022/08/15 07:58:27;;;;;;;;;;;;;;;27.26;43.69;98200.91;5173252;28;19929;-71
2022/08/15 08:01:25;;;;;;;;;;;;;;;26.64;45.08;98202.66;5169189;28;19968;-72
2022/08/15 08:04:27;;;;;;;;;;;;;;;25.67;47.90;98206.75;5174281;28;19922;-72
2022/08/15 08:07:29;;;;;;;;;;;;;;;26.28;46.72;98225.31;5171988;28;19921;-74
2022/08/15 08:10:33;;;;;;;;;;;;;;;25.74;47.41;98210.03;5174654;28;19975;-74
2022/08/15 08:13:28;;;;;;;;;;;;;;;27.83;44.70;98218.03;5168969;28;19987;-75
2022/08/15 08:16:29;;;;;;;;;;;;;;;27.12;45.49;98227.81;5166693;28;19929;-72
2022/08/15 08:19:29;;;;;;;;;;;;;;;28.50;43.06;98191.41;5168538;28;19928;-71
2022/08/15 08:22:28;;;;;;;;;;;;;;;28.23;42.98;98221.75;5169006;28;20016;-71
2022/08/15 08:25:24;;;;;;;;;;;;;;;27.23;44.81;98214.22;5167575;28;19963;-74
2022/08/15 08:28:53;;;;;;;;;;;;;;;28.38;43.50;98223.59;5168759;28;20430;-72
2022/08/15 08:31:53;;;;;;;;;;;;;;;29.64;41.33;98217.72;5163849;28;19921;-71
2022/08/15 08:34:45;;;;;;;;;;;;;;;29.15;40.91;98215.91;5174976;28;20066;-73
2022/08/15 08:37:56;;;;;;;;;;;;;;;28.38;42.46;98213.53;5187571;28;19929;-72
2022/08/15 08:44:07;;;;;;;;;;;;;;;30.34;39.00;98209.91;5180340;28;19936;-71
2022/08/15 08:47:23;;;;;;;;;;;;;;;28.92;41.54;98215.47;5184498;28;19984;-72
2022/08/15 08:50:33;;;;;;;;;;;;;;;29.20;40.55;98207.66;5185552;28;19932;-75
2022/08/15 08:53:43;;;;;;;;;;;;;;;28.48;41.79;98213.53;5169465;28;19979;-77
2022/08/15 08:56:37;;;;;;;;;;;;;;;30.16;39.96;98210.63;5189993;28;19927;-72
2022/08/15 08:59:34;;;;;;;;;;;;;;;31.18;36.58;98194.81;5176486;28;19936;-76
2022/08/15 09:02:27;;;;;;;;;;;;;;;30.40;38.06;98214.22;5181509;28;20016;-76
2022/08/15 09:05:41;;;;;;;;;;;;;;;30.91;37.55;98217.41;5187239;28;19929;-76
2022/08/15 09:08:39;;;;;;;;;;;;;;;31.62;35.93;98213.56;5169840;28;20397;-76
2022/08/15 09:11:36;;;;;;;;;;;;;;;30.79;37.06;98215.09;5172560;28;20330;-77
2022/08/15 09:14:34;;;;;;;;;;;;;;;29.69;38.70;98212.19;5186221;28;19943;-75
2022/08/15 09:17:47;;;;;;;;;;;;;;;31.08;36.85;98220.44;5167142;28;19932;-76
2022/08/15 09:20:46;;;;;;;;;;;;;;;31.18;36.08;98212.06;5184367;28;20448;-76
2022/08/15 09:23:42;;;;;;;;;;;;;;;32.38;35.17;98208.59;5186404;28;19925;-76
2022/08/15 09:26:41;;;;;;;;;;;;;;;32.32;34.74;98206.25;5168910;28;19929;-74
2022/08/15 09:29:37;;;;;;;;;;;;;;;31.74;34.34;98202.94;5184865;28;20554;-77
2022/08/15 09:32:50;;;;;;;;;;;;;;;29.61;37.44;98204.66;5181947;28;20027;-75
2022/08/15 09:36:00;;;;;;;;;;;;;;;31.10;34.86;98210.81;5188180;28;19932;-74
2022/08/15 09:38:56;;;;;;;;;;;;;;;31.56;34.68;98206.56;5181001;28;19928;-76
2022/08/15 09:41:47;;;;;;;;;;;;;;;32.75;32.50;98188.34;5169895;28;20032;-76
2022/08/15 09:45:07;;;;;;;;;;;;;;;29.05;37.87;98197.69;5168473;28;19929;-76
2022/08/15 09:48:16;;;;;;;;;;;;;;;30.27;36.89;98203.97;5166979;28;20303;-76
2022/08/15 09:51:15;;;;;;;;;;;;;;;31.77;33.95;98190.56;5168556;28;19929;-77
2022/08/15 09:54:08;;;;;;;;;;;;;;;31.78;32.95;98194.91;5181241;28;19944;-76
2022/08/15 09:57:23;;;;;;;;;;;;;;;31.64;33.79;98191.34;5166222;28;20063;-77
2022/08/15 10:00:15;;;;;;;;;;;;;;;28.88;36.54;98186.31;5184443;28;19928;-76
2022/08/15 10:03:22;;;;;;;;;;;;;;;28.89;36.60;98191.47;5184457;28;20022;-74
2022/08/15 10:06:19;;;;;;;;;;;;;;;29.60;35.92;98186.59;5169689;28;19976;-76
2022/08/15 10:09:31;;;;;;;;;;;;;;;31.13;33.90;98182.03;5183753;28;19943;-75
2022/08/15 10:12:22;;;;;;;;;;;;;;;32.26;31.91;98176.19;5189628;28;20522;-76
2022/08/15 10:15:32;;;;;;;;;;;;;;;33.03;31.24;98171.81;5185366;28;20140;-73
2022/08/15 10:18:22;;;;;;;;;;;;;;;32.97;30.65;98164.81;5183451;28;20355;-73
2022/08/15 10:21:30;;;;;;;;;;;;;;;30.29;34.17;98174.41;5185046;28;19929;-74
2022/08/15 10:24:20;;;;;;;;;;;;;;;29.55;35.81;98167.50;5165831;28;19981;-72
2022/08/15 10:27:22;;;;;;;;;;;;;;;29.00;36.26;98165.75;5181884;28;19929;-73
2022/08/15 10:30:15;;;;;;;;;;;;;;;29.57;35.94;98168.88;5187613;28;19936;-73
2022/08/15 10:33:27;;;;;;;;;;;;;;;29.03;36.17;98165.19;5185598;28;20032;-73
2022/08/15 10:36:35;;;;;;;;;;;;;;;28.73;37.88;98177.09;5188127;28;20046;-73
2022/08/15 10:39:46;;;;;;;;;;;;;;;29.52;35.90;98162.63;5168682;28;19948;-74
2022/08/15 10:42:55;;;;;;;;;;;;;;;31.56;33.79;98151.75;5181957;28;19944;-74
2022/08/15 10:46:04;;;;;;;;;;;;;;;31.00;33.47;98155.41;5181322;28;19991;-74
2022/08/15 10:49:01;;;;;;;;;;;;;;;30.47;33.98;98150.13;5177575;28;19929;-72
2022/08/15 10:52:18;;;;;;;;;;;;;;;30.70;34.65;98146.50;5159072;28;19944;-74
2022/08/15 10:55:26;;;;;;;;;;;;;;;31.24;32.81;98145.13;5170219;28;19932;-74
2022/08/15 10:58:36;;;;;;;;;;;;;;;30.63;33.38;98140.59;5163422;28;19928;-74
2022/08/15 11:01:34;;;;;;;;;;;;;;;29.06;36.19;98141.19;5181801;28;20538;-72
2022/08/15 11:04:35;;;;;;;;;;;;;;;29.53;35.29;98145.13;5186746;28;20403;-73
2022/08/15 11:07:46;;;;;;;;;;;;;;;30.78;33.71;98142.31;5174694;28;20004;-71
2022/08/15 11:10:36;;;;;;;;;;;;;;;31.00;32.35;98133.50;5182144;28;19944;-72
2022/08/15 11:13:31;;;;;;;;;;;;;;;30.60;33.57;98135.72;5180124;28;19983;-71
2022/08/15 11:16:44;;;;;;;;;;;;;;;29.96;34.68;98132.41;5180118;28;19973;-71
2022/08/15 11:19:38;;;;;;;;;;;;;;;30.96;33.70;98121.50;5184125;28;20006;-73
2022/08/15 11:22:52;;;;;;;;;;;;;;;29.66;35.13;98106.22;5183049;28;19928;-73
2022/08/15 11:25:43;;;;;;;;;;;;;;;30.61;33.71;98119.00;5181257;28;19933;-71
2022/08/15 11:28:34;;;;;;;;;;;;;;;30.62;33.56;98122.53;5177619;28;20375;-70
2022/08/15 11:31:26;;;;;;;;;;;;;;;30.54;33.78;98117.75;5187307;28;20431;-71
2022/08/15 11:34:36;;;;;;;;;;;;;;;30.79;34.20;98124.78;5182826;28;19948;-72
2022/08/15 11:37:38;;;;;;;;;;;;;;;31.95;32.45;98118.41;5184031;28;20598;-73
2022/08/15 11:40:31;;;;;;;;;;;;;;;32.16;31.86;98115.25;5183958;28;20399;-73
2022/08/15 11:43:22;;;;;;;;;;;;;;;30.39;34.39;98107.81;5183320;28;20019;-72
2022/08/15 11:46:12;;;;;;;;;;;;;;;30.44;33.85;98110.50;5160170;28;19964;-72
2022/08/15 11:49:26;;;;;;;;;;;;;;;30.43;34.20;98106.94;5181080;28;19928;-71
2022/08/15 11:52:27;;;;;;;;;;;;;;;31.21;32.94;98099.19;5177662;28;19940;-72
2022/08/15 11:55:31;;;;;;;;;;;;;;;31.01;33.34;98102.28;5181018;28;19979;-74
2022/08/15 11:58:28;;;;;;;;;;;;;;;32.23;32.02;98091.78;5179978;28;19927;-73
2022/08/15 12:01:29;;;;;;;;;;;;;;;31.98;31.17;98097.78;5184349;28;19928;-72
2022/08/15 12:04:27;;;;;;;;;;;;;;;32.46;31.18;98105.59;5188393;28;20331;-71
2022/08/15 12:07:31;;;;;;;;;;;;;;;31.34;33.15;98095.69;5181314;28;20311;-74
2022/08/15 12:10:30;;;;;;;;;;;;;;;30.73;32.57;98099.41;5188143;28;20395;-74
2022/08/15 12:13:23;;;;;;;;;;;;;;;31.41;30.58;98094.50;5176059;28;20032;-74
2022/08/15 12:16:27;;;;;;;;;;;;;;;31.88;31.12;98087.03;5182345;28;19990;-74
2022/08/15 12:19:37;;;;;;;;;;;;;;;31.06;32.16;98072.91;5184003;28;20398;-73
2022/08/15 12:22:47;;;;;;;;;;;;;;;29.47;33.79;98076.06;5162131;28;19933;-74
2022/08/15 12:25:43;;;;;;;;;;;;;;;30.73;32.73;98085.72;5176564;28;20010;-74
2022/08/15 12:28:44;;;;;;;;;;;;;;;31.08;31.12;98081.59;5168353;28;19930;-73
2022/08/15 12:31:41;;;;;;;;;;;;;;;31.73;30.19;98077.97;5177282;28;19929;-75
2022/08/15 12:34:37;;;;;;;;;;;;;;;30.46;32.70;98069.97;5180287;28;20027;-75
2022/08/15 12:37:28;;;;;;;;;;;;;;;31.48;31.70;98059.28;5181204;28;19940;-74
2022/08/15 12:40:29;;;;;;;;;;;;;;;30.74;32.23;98070.13;5185924;28;19928;-72
2022/08/15 12:43:36;;;;;;;;;;;;;;;30.66;32.03;98066.94;5184886;28;20071;-75
2022/08/15 12:46:27;;;;;;;;;;;;;;;31.21;31.39;98077.28;5180143;28;21113;-73
2022/08/15 12:49:17;;;;;;;;;;;;;;;30.39;32.42;98062.13;5182829;28;19921;-73
2022/08/15 12:52:07;;;;;;;;;;;;;;;31.08;32.29;98069.84;5182772;28;20051;-73
2022/08/15 12:54:58;;;;;;;;;;;;;;;30.62;31.86;98073.28;5167282;28;19983;-73
2022/08/15 12:57:50;;;;;;;;;;;;;;;30.02;32.91;98071.09;5181665;28;20012;-73
2022/08/15 13:00:44;;;;;;;;;;;;;;;29.88;32.69;98084.66;5177269;28;19932;-72
2022/08/15 13:03:52;;;;;;;;;;;;;;;30.63;31.95;98083.16;5164614;28;19929;-73
2022/08/15 13:06:55;;;;;;;;;;;;;;;30.82;31.90;98075.72;5165523;28;19932;-73
2022/08/15 13:09:46;;;;;;;;;;;;;;;30.94;31.48;98072.53;5181266;28;20014;-73
2022/08/15 13:12:36;;;;;;;;;;;;;;;30.97;31.78;98062.94;5184673;28;19971;-72
2022/08/15 13:15:26;;;;;;;;;;;;;;;31.02;32.22;98055.41;5181917;28;19921;-70
2022/08/15 13:18:19;;;;;;;;;;;;;;;30.77;31.61;98061.34;5189025;28;20655;-74
2022/08/15 13:24:27;;;;;;;;;;;;;;;29.42;33.37;98052.38;5182674;28;20433;-73
2022/08/15 13:27:18;;;;;;;;;;;;;;;30.37;31.96;98050.69;5181020;28;19933;-78
2022/08/15 13:30:23;;;;;;;;;;;;;;;29.76;32.49;98047.94;5187878;28;20347;-76
2022/08/15 13:33:26;;;;;;;;;;;;;;;29.45;33.25;98043.59;5179311;28;19948;-73
2022/08/15 13:36:19;;;;;;;;;;;;;;;30.45;33.03;98040.19;5181818;28;19928;-77
2022/08/15 13:39:21;;;;;;;;;;;;;;;30.82;31.60;98033.88;5160100;28;20668;-75
2022/08/15 13:42:18;;;;;;;;;;;;;;;29.98;32.80;98028.25;5178074;28;19997;-75
2022/08/15 13:45:26;;;;;;;;;;;;;;;30.14;32.00;98035.16;5172120;28;20319;-75
2022/08/15 13:48:38;;;;;;;;;;;;;;;30.42;32.68;98039.66;5167200;28;19964;-78
2022/08/15 13:51:44;;;;;;;;;;;;;;;29.42;33.97;98038.72;5177978;28;19960;-77
2022/08/15 13:54:50;;;;;;;;;;;;;;;30.07;33.52;98032.78;5183409;28;19983;-76
2022/08/15 13:57:42;;;;;;;;;;;;;;;29.79;33.56;98045.44;5178578;28;20462;-77
2022/08/15 14:00:32;;;;;;;;;;;;;;;29.91;34.28;98034.91;5163767;28;19928;-76
2022/08/15 14:03:43;;;;;;;;;;;;;;;29.64;33.71;98029.25;5183761;28;19941;-75
2022/08/15 14:06:35;;;;;;;;;;;;;;;29.48;34.30;98036.75;5178324;28;19929;-76
2022/08/15 14:09:26;;;;;;;;;;;;;;;29.56;33.59;98014.25;5174716;28;19948;-75
2022/08/15 14:12:36;;;;;;;;;;;;;;;29.07;34.62;98023.53;5164903;28;19928;-78
2022/08/15 14:15:26;;;;;;;;;;;;;;;28.61;35.50;98018.47;5178468;28;20454;-77
2022/08/15 14:18:21;;;;;;;;;;;;;;;29.00;36.24;98017.59;5182647;28;20380;-76
2022/08/15 14:21:32;;;;;;;;;;;;;;;28.74;36.85;98026.00;5179693;28;19944;-76
2022/08/15 14:24:22;;;;;;;;;;;;;;;28.57;37.96;98037.28;5164364;28;19921;-77
2022/08/15 14:27:25;;;;;;;;;;;;;;;28.12;38.03;98030.22;5162104;28;20288;-75
2022/08/15 14:30:31;;;;;;;;;;;;;;;28.08;39.11;98038.13;5177479;28;19931;-76
2022/08/15 14:33:26;;;;;;;;;;;;;;;27.58;39.49;98039.13;5174536;28;19937;-77
2022/08/15 14:36:17;;;;;;;;;;;;;;;27.47;40.21;98057.41;5187619;28;19983;-77
2022/08/15 14:39:18;;;;;;;;;;;;;;;27.57;40.59;98051.94;5170696;28;19928;-76
2022/08/15 14:42:10;;;;;;;;;;;;;;;27.74;40.07;98053.50;5169517;28;19922;-75
2022/08/15 14:45:04;;;;;;;;;;;;;;;26.77;41.93;98070.78;5178253;28;21169;-77
2022/08/15 14:47:54;;;;;;;;;;;;;;;26.76;42.48;98073.81;5177338;28;19969;-75
2022/08/15 14:50:44;;;;;;;;;;;;;;;26.35;44.16;98069.06;5181947;28;19929;-74
2022/08/15 14:53:43;;;;;;;;;;;;;;;26.10;44.93;98067.13;5183599;28;20508;-75
2022/08/15 14:56:34;;;;;;;;;;;;;;;26.08;45.28;98085.59;5152767;28;19987;-76
2022/08/15 14:59:24;;;;;;;;;;;;;;;25.82;45.23;98102.84;5179066;28;19932;-73
2022/08/15 15:02:22;;;;;;;;;;;;;;;25.72;45.77;98112.53;5179697;28;20031;-72
2022/08/15 15:05:16;;;;;;;;;;;;;;;24.70;48.51;98119.09;5181791;28;19925;-74
2022/08/15 15:08:07;;;;;;;;;;;;;;;24.36;47.94;98125.50;5181898;28;19921;-73
2022/08/15 15:11:08;;;;;;;;;;;;;;;23.80;49.10;98108.56;5178685;28;19932;-74
2022/08/15 15:13:59;;;;;;;;;;;;;;;23.40;49.29;98120.44;5177794;28;20439;-75
2022/08/15 15:16:49;;;;;;;;;;;;;;;23.39;49.29;98140.44;5181629;28;19936;-73
2022/08/15 15:19:41;;;;;;;;;;;;;;;23.63;48.17;98170.00;5181042;28;19932;-72
2022/08/15 15:22:31;;;;;;;;;;;;;;;22.27;50.66;98189.75;5169395;28;19964;-73